createdAt,value
2022-08-02T00:00:10.664Z,6.38
2022-08-02T00:02:37.677Z,6.97
2022-08-02T00:05:05.723Z,4.70
2022-08-02T00:07:37.573Z,4.35
2022-08-02T00:10:08.838Z,3.70
2022-08-02T00:12:35.592Z,5.97
2022-08-02T00:15:02.484Z,4.07
2022-08-02T00:17:29.221Z,5.75
2022-08-02T00:19:55.885Z,4.32
2022-08-02T00:22:22.527Z,7.20
2022-08-02T00:24:49.219Z,8.13
2022-08-02T00:27:15.986Z,6.38
2022-08-02T00:29:52.636Z,4.55
2022-08-02T00:32:24.346Z,6.35
2022-08-02T00:34:51.367Z,6.70
2022-08-02T00:37:18.013Z,8.85
2022-08-02T00:39:45.727Z,6.97
2022-08-02T00:42:15.284Z,6.53
2022-08-02T00:44:42.312Z,6.85
2022-08-02T00:47:09.069Z,7.22
2022-08-02T00:49:35.811Z,5.78
2022-08-02T00:52:02.639Z,6.60
2022-08-02T00:54:29.281Z,5.22
2022-08-02T00:56:56.011Z,4.32
2022-08-02T00:59:22.689Z,6.55
2022-08-02T01:01:57.234Z,6.05
2022-08-02T01:04:31.469Z,3.38
2022-08-02T01:07:12.262Z,3.00
2022-08-02T01:09:44.942Z,4.25
2022-08-02T01:12:12.409Z,4.25
2022-08-02T01:14:42.115Z,4.47
2022-08-02T01:17:17.768Z,4.75
2022-08-02T01:20:35.639Z,5.03
2022-08-02T01:23:40.120Z,3.08
2022-08-02T01:26:15.412Z,5.35
2022-08-02T01:29:21.048Z,4.10
2022-08-02T01:31:53.957Z,4.53
2022-08-02T01:34:39.280Z,4.93
2022-08-02T01:37:24.255Z,5.43
2022-08-02T01:40:13.241Z,4.10
2022-08-02T01:42:45.812Z,3.60
2022-08-02T01:45:14.963Z,5.63
2022-08-02T01:47:43.583Z,3.33
2022-08-02T01:50:14.146Z,4.50
2022-08-02T01:52:53.679Z,4.35
2022-08-02T01:55:33.695Z,3.47
2022-08-02T01:58:16.791Z,3.70
2022-08-02T02:00:44.941Z,4.50
2022-08-02T02:03:19.379Z,5.80
2022-08-02T02:05:48.687Z,5.90
2022-08-02T02:08:27.439Z,2.45
2022-08-02T02:10:56.181Z,5.55
2022-08-02T02:13:33.151Z,3.42
2022-08-02T02:16:04.799Z,2.53
2022-08-02T02:18:34.453Z,3.28
2022-08-02T02:21:01.171Z,2.97
2022-08-02T02:23:28.133Z,3.03
2022-08-02T02:28:32.670Z,2.63
2022-08-02T02:31:07.162Z,5.65
2022-08-02T02:33:38.967Z,3.60
2022-08-02T02:36:07.824Z,3.67
2022-08-02T02:38:36.372Z,2.80
2022-08-02T02:41:05.475Z,2.72
2022-08-02T02:43:34.311Z,4.18
2022-08-02T02:46:05.055Z,2.58
2022-08-02T02:48:32.589Z,4.47
2022-08-02T02:51:00.793Z,3.70
2022-08-02T02:53:28.651Z,4.57
2022-08-02T02:56:16.816Z,10.63
2022-08-02T02:58:45.112Z,6.47
2022-08-02T03:01:55.202Z,5.35
2022-08-02T03:04:17.900Z,3.45
2022-08-02T03:06:45.043Z,4.68
2022-08-02T03:09:11.903Z,5.15
2022-08-02T03:11:40.779Z,4.28
2022-08-02T03:14:11.467Z,3.22
2022-08-02T03:16:49.675Z,5.47
2022-08-02T03:19:16.882Z,3.75
2022-08-02T03:21:44.906Z,4.82
2022-08-02T03:24:12.480Z,4.50
2022-08-02T03:26:40.102Z,4.50
2022-08-02T03:29:11.036Z,4.63
2022-08-02T03:31:41.769Z,2.67
2022-08-02T03:34:09.116Z,2.92
2022-08-02T03:36:37.315Z,3.92
2022-08-02T03:39:05.205Z,4.35
2022-08-02T03:41:33.169Z,3.75
2022-08-02T03:44:00.788Z,2.50
2022-08-02T03:46:27.875Z,2.95
2022-08-02T03:48:55.089Z,3.67
2022-08-02T03:51:22.681Z,2.85
2022-08-02T03:53:52.591Z,3.70
2022-08-02T03:56:20.055Z,4.82
2022-08-02T03:58:49.306Z,2.95
2022-08-02T04:01:16.775Z,2.65
2022-08-02T04:03:43.635Z,2.75
2022-08-02T04:06:10.334Z,5.50
2022-08-02T04:08:38.753Z,2.85
2022-08-02T04:11:24.534Z,4.57
2022-08-02T04:13:52.059Z,2.70
2022-08-02T04:16:22.578Z,2.88
2022-08-02T04:18:56.569Z,2.60
2022-08-02T04:21:27.020Z,4.13
2022-08-02T04:24:18.544Z,3.20
2022-08-02T04:26:48.830Z,6.28
2022-08-02T04:29:18.552Z,3.75
2022-08-02T04:31:45.874Z,4.70
2022-08-02T04:34:15.342Z,4.38
2022-08-02T04:36:43.197Z,7.15
2022-08-02T04:39:10.272Z,4.65
2022-08-02T04:41:43.883Z,3.50
2022-08-02T04:44:12.159Z,4.07
2022-08-02T04:46:41.001Z,10.10
2022-08-02T04:49:08.320Z,7.80
2022-08-02T04:51:38.356Z,5.43
2022-08-02T04:54:09.899Z,4.93
2022-08-02T04:56:40.504Z,3.58
2022-08-02T04:59:07.647Z,6.68
2022-08-02T05:01:35.826Z,5.18
2022-08-02T05:04:03.098Z,4.47
2022-08-02T05:06:29.759Z,4.18
2022-08-02T05:08:56.475Z,5.25
2022-08-02T05:11:30.028Z,5.18
2022-08-02T05:14:02.834Z,6.90
2022-08-02T05:16:31.120Z,5.57
2022-08-02T05:18:58.863Z,6.18
2022-08-02T05:21:25.516Z,4.80
2022-08-02T05:23:52.198Z,7.15
2022-08-02T05:26:18.836Z,7.53
2022-08-02T05:28:45.459Z,4.78
2022-08-02T05:31:13.160Z,5.53
2022-08-02T05:33:40.580Z,6.40
2022-08-02T05:36:09.359Z,5.63
2022-08-02T05:38:36.953Z,7.20
2022-08-02T05:41:04.429Z,5.55
2022-08-02T05:43:31.224Z,7.78
2022-08-02T05:45:57.937Z,4.90
2022-08-02T05:48:30.896Z,10.95
2022-08-02T05:51:11.030Z,6.35
2022-08-02T05:53:46.629Z,9.85
2022-08-02T05:56:24.588Z,6.53
2022-08-02T05:59:12.129Z,10.90
2022-08-02T06:01:40.806Z,9.73
2022-08-02T06:04:16.629Z,6.60
2022-08-02T06:06:46.011Z,6.32
2022-08-02T06:09:23.097Z,6.05
2022-08-02T06:12:11.471Z,4.10
2022-08-02T06:14:41.815Z,5.15
2022-08-02T06:17:09.198Z,5.88
2022-08-02T06:19:51.024Z,5.60
2022-08-02T06:22:31.246Z,5.78
2022-08-02T06:25:02.468Z,3.20
2022-08-02T06:27:30.728Z,6.05
2022-08-02T06:29:58.019Z,4.70
2022-08-02T06:32:27.308Z,11.40
2022-08-02T06:34:54.186Z,9.70
2022-08-02T06:37:39.006Z,17.38
2022-08-02T06:40:26.833Z,19.40
2022-08-02T06:43:08.572Z,8.68
2022-08-02T06:45:35.613Z,11.38
2022-08-02T06:48:02.699Z,11.77
2022-08-02T06:50:30.327Z,11.45
2022-08-02T06:52:57.059Z,9.70
2022-08-02T06:55:23.682Z,12.07
2022-08-02T06:57:50.408Z,16.15
2022-08-02T07:00:20.448Z,19.45
2022-08-02T07:02:47.055Z,11.23
2022-08-02T07:05:13.841Z,8.85
2022-08-02T07:07:40.610Z,8.32
2022-08-02T07:10:07.798Z,6.78
2022-08-02T07:12:35.342Z,13.35
2022-08-02T07:15:05.487Z,12.57
2022-08-02T07:17:32.853Z,13.20
2022-08-02T07:20:00.901Z,10.57
2022-08-02T07:22:28.648Z,22.25
2022-08-02T07:24:57.144Z,13.77
2022-08-02T07:27:23.997Z,22.58
2022-08-02T07:29:51.251Z,19.58
2022-08-02T07:32:19.535Z,14.48
2022-08-02T07:34:50.463Z,13.65
2022-08-02T07:37:36.041Z,13.63
2022-08-02T07:40:13.788Z,11.98
2022-08-02T07:42:45.438Z,14.73
2022-08-02T07:45:13.889Z,18.52
2022-08-02T07:47:42.146Z,10.52
2022-08-02T07:50:09.914Z,11.68
2022-08-02T07:52:36.613Z,12.50
2022-08-02T07:55:04.195Z,8.63
2022-08-02T07:57:31.122Z,16.45
2022-08-02T07:59:57.969Z,16.25
2022-08-02T08:02:25.113Z,7.40
2022-08-02T08:04:52.930Z,9.13
2022-08-02T08:07:20.317Z,8.98
2022-08-02T08:09:50.669Z,13.73
2022-08-02T08:12:22.335Z,2.63
2022-08-02T08:14:48.969Z,5.88
2022-08-02T08:17:15.657Z,4.55
2022-08-02T08:19:52.006Z,5.15
2022-08-02T08:22:22.504Z,6.03
2022-08-02T08:24:49.724Z,4.55
2022-08-02T08:27:18.076Z,5.65
2022-08-02T08:29:46.077Z,3.17
2022-08-02T08:32:17.816Z,4.22
2022-08-02T08:34:49.144Z,1.73
2022-08-02T08:37:18.479Z,8.45
2022-08-02T08:39:56.530Z,5.68
2022-08-02T08:42:24.785Z,4.05
2022-08-02T08:44:51.642Z,4.85
2022-08-02T08:47:19.271Z,3.78
2022-08-02T08:49:52.552Z,11.98
2022-08-02T08:52:23.784Z,7.50
2022-08-02T08:54:51.349Z,11.13
2022-08-02T08:57:20.744Z,4.07
2022-08-02T08:59:47.615Z,5.30
2022-08-02T09:02:19.597Z,5.65
2022-08-02T09:04:54.546Z,6.22
2022-08-02T09:07:22.684Z,4.05
2022-08-02T09:09:49.387Z,4.57
2022-08-02T09:12:17.384Z,6.05
2022-08-02T09:14:46.498Z,3.63
2022-08-02T09:17:17.744Z,6.45
2022-08-02T09:19:45.839Z,6.43
2022-08-02T09:22:15.687Z,7.32
2022-08-02T09:24:50.087Z,4.43
2022-08-02T09:27:19.730Z,7.65
2022-08-02T09:30:13.528Z,7.95
2022-08-02T09:32:47.852Z,12.65
2022-08-02T09:35:30.628Z,10.13
2022-08-02T09:38:17.579Z,12.90
2022-08-02T09:40:44.353Z,8.00
2022-08-02T09:43:10.978Z,8.75
2022-08-02T09:45:37.820Z,6.05
2022-08-02T09:48:08.376Z,3.50
2022-08-02T09:50:41.062Z,6.15
2022-08-02T09:53:14.052Z,6.45
2022-08-02T09:55:42.102Z,3.08
2022-08-02T09:58:21.845Z,2.97
2022-08-02T10:00:56.781Z,4.80
2022-08-02T10:03:25.966Z,4.10
2022-08-02T10:06:03.493Z,7.50
2022-08-02T10:08:33.104Z,2.47
2022-08-02T10:11:01.614Z,2.70
2022-08-02T10:13:33.375Z,13.55
2022-08-02T10:16:02.322Z,4.65
2022-08-02T10:18:38.865Z,3.45
2022-08-02T10:21:14.798Z,4.35
2022-08-02T10:23:44.066Z,3.95
2022-08-02T10:26:15.145Z,5.53
2022-08-02T10:28:45.744Z,3.67
2022-08-02T10:31:14.609Z,3.03
2022-08-02T10:33:46.411Z,3.90
2022-08-02T10:36:15.563Z,3.65
2022-08-02T10:38:44.555Z,4.22
2022-08-02T10:41:11.774Z,2.58
2022-08-02T10:43:38.334Z,4.53
2022-08-02T10:46:25.263Z,3.00
2022-08-02T10:52:01.811Z,6.32
2022-08-02T10:54:31.246Z,4.30
2022-08-02T10:57:01.228Z,5.95
2022-08-02T10:59:28.332Z,3.70
2022-08-02T11:02:02.968Z,2.35
2022-08-02T11:04:31.175Z,5.13
2022-08-02T11:07:19.398Z,5.13
2022-08-02T11:09:48.599Z,3.58
2022-08-02T11:12:18.318Z,4.18
2022-08-02T11:14:57.910Z,3.15
2022-08-02T11:17:25.181Z,3.53
2022-08-02T11:20:10.746Z,2.65
2022-08-02T11:22:38.024Z,4.72
2022-08-02T11:25:24.848Z,7.47
2022-08-02T11:27:53.758Z,3.05
2022-08-02T11:30:26.786Z,4.05
2022-08-02T11:33:00.669Z,2.95
2022-08-02T11:35:38.832Z,3.53
2022-08-02T11:38:19.221Z,3.05
2022-08-02T11:40:47.231Z,2.80
2022-08-02T11:43:19.212Z,2.63
2022-08-02T11:45:46.623Z,2.83
2022-08-02T11:48:13.319Z,2.80
2022-08-02T11:50:40.700Z,7.03
2022-08-02T11:53:15.812Z,2.28
2022-08-02T11:55:42.568Z,2.08
2022-08-02T11:58:11.547Z,2.85
2022-08-02T12:00:39.173Z,2.85
2022-08-02T12:03:06.635Z,2.35
2022-08-02T12:06:03.824Z,2.35
2022-08-02T12:08:25.288Z,2.00
2022-08-02T12:10:52.400Z,1.90
2022-08-02T12:13:19.044Z,2.92
2022-08-02T12:15:47.220Z,2.30
2022-08-02T12:18:39.063Z,1.63
2022-08-02T12:21:24.880Z,2.40
2022-08-02T12:24:00.509Z,2.25
2022-08-02T12:26:29.595Z,2.88
2022-08-02T12:28:58.129Z,3.95
2022-08-02T12:31:56.975Z,2.13
2022-08-02T12:34:31.372Z,3.80
2022-08-02T12:37:07.471Z,4.30
2022-08-02T12:39:38.658Z,3.75
2022-08-02T12:42:07.707Z,3.97
2022-08-02T12:44:35.952Z,2.20
2022-08-02T12:47:05.599Z,2.05
2022-08-02T12:49:32.824Z,2.72
2022-08-02T12:52:03.455Z,5.60
2022-08-02T12:54:40.234Z,2.30
2022-08-02T12:57:11.890Z,2.78
2022-08-02T12:59:40.355Z,4.25
2022-08-02T13:02:10.984Z,2.88
2022-08-02T13:04:38.649Z,2.17
2022-08-02T13:07:06.118Z,3.05
2022-08-02T13:09:37.207Z,5.03
2022-08-02T13:12:05.834Z,2.77
2022-08-02T13:14:40.365Z,1.88
2022-08-02T13:17:08.992Z,2.00
2022-08-02T13:19:36.905Z,3.10
2022-08-02T13:22:04.395Z,4.07
2022-08-02T13:24:38.726Z,4.70
2022-08-02T13:27:09.415Z,3.60
2022-08-02T13:29:39.317Z,3.88
2022-08-02T13:32:06.359Z,3.75
2022-08-02T13:34:33.091Z,5.22
2022-08-02T13:36:59.750Z,2.75
2022-08-02T13:39:26.394Z,4.03
2022-08-02T13:41:53.278Z,4.80
2022-08-02T13:44:20.162Z,5.20
2022-08-02T13:46:47.296Z,3.00
2022-08-02T13:49:18.821Z,2.08
2022-08-02T13:51:50.223Z,7.65
2022-08-02T13:54:17.117Z,5.55
2022-08-02T13:56:44.152Z,1.98
2022-08-02T13:59:54.656Z,4.22
2022-08-02T14:01:58.632Z,6.85
2022-08-02T14:04:26.507Z,4.07
2022-08-02T14:06:53.393Z,2.92
2022-08-02T14:09:20.278Z,3.55
2022-08-02T14:11:47.383Z,3.03
2022-08-02T14:14:17.047Z,2.85
2022-08-02T14:16:45.406Z,3.70
2022-08-02T14:19:16.752Z,4.03
2022-08-02T14:21:48.495Z,2.65
2022-08-02T14:24:16.731Z,3.63
2022-08-02T14:26:44.500Z,1.73
2022-08-02T14:29:13.431Z,3.63
2022-08-02T14:31:44.331Z,2.33
2022-08-02T14:34:12.509Z,3.25
2022-08-02T14:36:39.400Z,3.40
2022-08-02T14:39:06.634Z,2.88
2022-08-02T14:41:59.218Z,3.28
2022-08-02T14:44:23.442Z,4.13
2022-08-02T14:46:51.577Z,2.13
2022-08-02T14:49:25.679Z,4.70
2022-08-02T14:51:57.536Z,3.40
2022-08-02T14:54:30.557Z,2.40
2022-08-02T14:57:02.797Z,2.10
2022-08-02T14:59:30.343Z,1.80
2022-08-02T15:01:57.224Z,1.70
2022-08-02T15:04:24.199Z,2.95
2022-08-02T15:06:51.500Z,8.77
2022-08-02T15:09:18.971Z,3.03
2022-08-02T15:11:48.301Z,3.05
2022-08-02T15:14:21.748Z,4.50
2022-08-02T15:16:57.972Z,9.95
2022-08-02T15:19:56.445Z,2.90
2022-08-02T15:22:19.327Z,2.22
2022-08-02T15:24:47.102Z,2.35
2022-08-02T15:27:14.696Z,4.30
2022-08-02T15:29:43.345Z,2.90
2022-08-02T15:32:10.875Z,2.22
2022-08-02T15:34:38.050Z,1.70
2022-08-02T15:37:04.816Z,2.80
2022-08-02T15:39:31.889Z,1.98
2022-08-02T15:41:58.532Z,4.70
2022-08-02T15:44:25.265Z,2.55
2022-08-02T15:46:53.743Z,3.95
2022-08-02T15:49:23.688Z,3.78
2022-08-02T15:51:52.096Z,1.92
2022-08-02T15:54:19.339Z,2.13
2022-08-02T15:56:46.286Z,3.00
2022-08-02T15:59:12.992Z,2.90
2022-08-02T16:01:43.573Z,2.97
2022-08-02T16:04:14.538Z,3.40
2022-08-02T16:06:41.444Z,2.60
2022-08-02T16:09:08.810Z,5.45
2022-08-02T16:11:35.511Z,3.75
2022-08-02T16:14:02.372Z,2.55
2022-08-02T16:16:31.982Z,2.50
2022-08-02T16:18:59.703Z,2.55
2022-08-02T16:21:47.587Z,2.20
2022-08-02T16:24:14.242Z,2.33
2022-08-02T16:26:40.958Z,3.17
2022-08-02T16:29:07.612Z,3.00
2022-08-02T16:31:36.484Z,2.40
2022-08-02T16:34:05.591Z,4.53
2022-08-02T16:36:32.269Z,3.15
2022-08-02T16:38:58.932Z,7.35
2022-08-02T16:41:52.192Z,5.53
2022-08-02T16:44:12.344Z,2.80
2022-08-02T16:46:39.052Z,4.75
2022-08-02T16:49:05.773Z,2.55
2022-08-02T16:51:53.333Z,2.50
2022-08-02T16:54:19.924Z,4.88
2022-08-02T16:56:46.544Z,5.00
2022-08-02T16:59:14.601Z,3.08
2022-08-02T17:02:11.717Z,2.40
2022-08-02T17:04:28.260Z,2.90
2022-08-02T17:06:55.460Z,4.15
2022-08-02T17:10:02.950Z,2.65
2022-08-02T17:12:15.802Z,3.38
2022-08-02T17:14:55.166Z,3.75
2022-08-02T17:17:33.850Z,4.78
2022-08-02T17:20:01.650Z,3.10
2022-08-02T17:22:28.818Z,3.88
2022-08-02T17:24:55.842Z,11.20
2022-08-02T17:27:22.765Z,4.55
2022-08-02T17:29:49.790Z,5.43
2022-08-02T17:32:18.555Z,2.72
2022-08-02T17:34:48.890Z,4.53
2022-08-02T17:37:23.668Z,4.80
2022-08-02T17:39:52.010Z,4.00
2022-08-02T17:42:20.208Z,3.67
2022-08-02T17:44:51.577Z,2.80
2022-08-02T17:47:18.300Z,3.22
2022-08-02T17:49:47.925Z,9.30
2022-08-02T17:52:50.833Z,2.75
2022-08-02T17:55:04.826Z,2.53
2022-08-02T17:57:55.616Z,3.17
2022-08-02T18:00:18.586Z,4.70
2022-08-02T18:02:52.924Z,3.85
2022-08-02T18:05:22.683Z,2.05
2022-08-02T18:07:55.393Z,3.90
2022-08-02T18:10:27.644Z,7.13
2022-08-02T18:12:54.306Z,6.85
2022-08-02T18:15:23.027Z,4.25
2022-08-02T18:17:49.685Z,9.13
2022-08-02T18:20:17.277Z,8.70
2022-08-02T18:22:44.949Z,7.25
2022-08-02T18:25:18.436Z,4.78
2022-08-02T18:27:58.671Z,4.28
2022-08-02T18:30:28.131Z,3.72
2022-08-02T18:33:54.493Z,4.35
2022-08-02T18:35:42.902Z,4.60
2022-08-02T18:38:11.565Z,4.78
2022-08-02T18:40:39.112Z,7.85
2022-08-02T18:43:07.035Z,3.35
2022-08-02T18:46:01.593Z,3.50
2022-08-02T18:48:22.047Z,3.83
2022-08-02T18:50:48.887Z,4.32
2022-08-02T18:53:39.555Z,3.97
2022-08-02T18:56:05.050Z,3.15
2022-08-02T18:58:34.928Z,2.55
2022-08-02T19:01:04.962Z,3.80
2022-08-02T19:03:37.134Z,4.32
2022-08-02T19:06:04.454Z,3.55
2022-08-02T19:08:34.886Z,3.47
2022-08-02T19:11:02.553Z,2.50
2022-08-02T19:13:29.641Z,3.95
2022-08-02T19:15:56.577Z,4.82
2022-08-02T19:18:27.056Z,3.65
2022-08-02T19:21:02.950Z,3.22
2022-08-02T19:23:32.856Z,2.67
2022-08-02T19:26:00.135Z,4.70
2022-08-02T19:28:27.475Z,6.68
2022-08-02T19:30:55.236Z,3.42
2022-08-02T19:33:54.402Z,26.20
2022-08-02T19:36:08.551Z,7.32
2022-08-02T19:38:35.339Z,7.47
2022-08-02T19:41:02.068Z,13.45
2022-08-02T19:44:23.663Z,6.95
2022-08-02T19:46:16.241Z,3.08
2022-08-02T19:48:44.098Z,3.90
2022-08-02T19:51:13.023Z,6.50
2022-08-02T19:53:48.865Z,4.18
2022-08-02T19:56:25.226Z,7.05
2022-08-02T19:58:54.208Z,8.80
2022-08-02T20:01:28.057Z,3.15
2022-08-02T20:04:05.258Z,6.13
2022-08-02T20:06:31.955Z,6.82
2022-08-02T20:09:01.287Z,3.25
2022-08-02T20:11:34.878Z,5.72
2022-08-02T20:14:08.082Z,5.53
2022-08-02T20:16:36.138Z,4.18
2022-08-02T20:19:05.682Z,3.72
2022-08-02T20:21:36.962Z,4.20
2022-08-02T20:24:06.623Z,2.78
2022-08-02T20:26:35.384Z,2.25
2022-08-02T20:29:03.724Z,4.00
2022-08-02T20:31:30.728Z,2.95
2022-08-02T20:33:57.680Z,5.35
2022-08-02T20:36:28.076Z,2.30
2022-08-02T20:38:55.573Z,3.38
2022-08-02T20:41:23.868Z,7.60
2022-08-02T20:44:04.218Z,4.72
2022-08-02T20:46:30.831Z,8.43
2022-08-02T20:49:01.338Z,4.50
2022-08-02T20:51:33.813Z,3.67
2022-08-02T20:54:00.602Z,6.35
2022-08-02T20:56:29.380Z,4.63
2022-08-02T20:59:03.598Z,4.85
2022-08-02T21:01:36.924Z,3.58
2022-08-02T21:04:04.005Z,4.50
2022-08-02T21:06:31.181Z,5.75
2022-08-02T21:08:58.654Z,3.25
2022-08-02T21:14:12.147Z,6.07
2022-08-02T21:16:38.943Z,3.53
2022-08-02T21:19:09.638Z,4.20
2022-08-02T21:21:37.277Z,3.58
2022-08-02T21:24:04.874Z,4.43
2022-08-02T21:26:32.504Z,4.72
2022-08-02T21:29:00.768Z,4.25
2022-08-02T21:34:22.486Z,2.70
2022-08-02T21:36:55.189Z,3.78
2022-08-02T21:39:22.039Z,6.70
2022-08-02T21:41:49.404Z,2.58
2022-08-02T21:44:17.119Z,3.55
2022-08-02T21:46:49.449Z,4.88
2022-08-02T21:49:20.865Z,5.45
2022-08-02T21:51:54.717Z,5.40
2022-08-02T21:54:22.840Z,3.85
2022-08-02T21:56:52.745Z,8.48
2022-08-02T21:59:25.782Z,5.47
2022-08-02T22:01:57.367Z,7.90
2022-08-02T22:04:25.719Z,5.78
2022-08-02T22:06:53.758Z,3.28
2022-08-02T22:09:44.381Z,3.90
2022-08-02T22:12:10.122Z,8.57
2022-08-02T22:14:39.662Z,7.10
2022-08-02T22:17:09.053Z,6.18
2022-08-02T22:19:53.794Z,6.45
2022-08-02T22:22:28.314Z,7.18
2022-08-02T22:24:56.848Z,4.65
2022-08-02T22:28:36.455Z,5.15
2022-08-02T22:30:11.309Z,5.90
2022-08-02T22:32:56.315Z,4.65
2022-08-02T22:35:23.055Z,7.90
2022-08-02T22:38:15.360Z,3.17
2022-08-02T22:40:36.417Z,3.72
2022-08-02T22:43:03.198Z,7.07
2022-08-02T22:45:29.922Z,3.67
2022-08-02T22:48:03.551Z,5.47
2022-08-02T22:50:30.397Z,4.20
2022-08-02T22:52:57.370Z,5.20
2022-08-02T22:55:24.240Z,9.00
2022-08-02T22:57:58.777Z,5.47
2022-08-02T22:59:02.072Z,3.38
2022-08-02T23:00:26.142Z,5.68
2022-08-02T23:02:53.165Z,3.80
2022-08-02T23:05:20.892Z,6.68
2022-08-02T23:07:47.605Z,5.50
2022-08-02T23:10:14.870Z,4.25
2022-08-02T23:12:41.514Z,4.03
2022-08-02T23:15:08.976Z,4.32
2022-08-02T23:17:54.026Z,4.75
2022-08-02T23:20:20.778Z,5.35
2022-08-02T23:22:47.564Z,9.55
2022-08-02T23:25:14.328Z,5.88
2022-08-02T23:27:50.491Z,3.83
2022-08-02T23:30:18.470Z,5.50
2022-08-02T23:32:46.917Z,6.38
2022-08-02T23:35:16.740Z,4.28
2022-08-02T23:38:00.301Z,3.85
2022-08-02T23:40:39.309Z,3.83
2022-08-02T23:43:14.536Z,6.53
2022-08-02T23:45:46.472Z,4.82
2022-08-02T23:48:13.315Z,4.10
2022-08-02T23:50:40.008Z,8.60
2022-08-02T23:53:06.683Z,5.57
2022-08-02T23:55:33.303Z,5.07
2022-08-02T23:58:00.187Z,7.05
